Heino — V2CO9 — position and weather

sailwx.info

Track history (hours):
 
Tides and Currents Weather Stations Pressure Air Temp Water Temp Dewpoint Dewpoint Depression Visibility Wind Speed Wind Dir Waves Ship Positions

Heino

Last reported at 2018-May-21 09:14 UTC. Time now 2018-May-25 05:25 UTC.
Position N 34°52' E 139°19'.

Length 138 m; draft 6 m.

Type: Cargo ship. MMSI: 305063000.

Date/timePositionNaut miles runAvg speedWind from/ knotsBaromVisibWave heightAir tempDewpointWater temp
2018-May-21 09:14N 34°52' E 139°19'310.9
2018-May-21 08:59N 34°53' E 139°22'510.3
2018-May-21 08:30N 34°56' E 139°27'510.2
2018-May-21 08:00N 34°59' E 139°32'611.1
2018-May-21 07:29N 35°03' E 139°38'613.1
2018-May-21 07:00N 35°07' E 139°44'713.3
2018-May-21 06:30N 35°13' E 139°46'611.7
2018-May-21 06:01N 35°18' E 139°43'612.7
2018-May-21 05:30N 35°25' E 139°43'3 6.7
2018-May-21 05:00N 35°28' E 139°42'0 0.0
2018-May-21 04:30N 35°28' E 139°42'0 0.0
2018-May-21 04:00N 35°28' E 139°42'0 0.0
2018-May-21 03:30N 35°28' E 139°42'0 0.0
2018-May-21 03:00N 35°28' E 139°42'0 0.0
2018-May-21 02:28N 35°28' E 139°42'0 0.0
2018-May-21 02:00N 35°28' E 139°42'  
Track history (hours):
 
Tides and Currents Weather Stations Pressure Air Temp Water Temp Dewpoint Dewpoint Depression Visibility Wind Speed Wind Dir Waves Ship Positions

Heino

Last reported at 2018-May-21 09:14 UTC. Time now 2018-May-25 05:25 UTC.
Position N 34°52' E 139°19'.

Length 138 m; draft 6 m.

Type: Cargo ship. MMSI: 305063000.

Date/timePositionNaut miles runAvg speedWind from/ knotsBaromVisibWave heightAir tempDewpointWater temp
2018-May-21 09:14N 34°52' E 139°19'310.9
2018-May-21 08:59N 34°53' E 139°22'510.3
2018-May-21 08:30N 34°56' E 139°27'510.2
2018-May-21 08:00N 34°59' E 139°32'611.1
2018-May-21 07:29N 35°03' E 139°38'613.1
2018-May-21 07:00N 35°07' E 139°44'713.3
2018-May-21 06:30N 35°13' E 139°46'611.7
2018-May-21 06:01N 35°18' E 139°43'612.7
2018-May-21 05:30N 35°25' E 139°43'3 6.7
2018-May-21 05:00N 35°28' E 139°42'0 0.0
2018-May-21 04:30N 35°28' E 139°42'0 0.0
2018-May-21 04:00N 35°28' E 139°42'0 0.0
2018-May-21 03:30N 35°28' E 139°42'0 0.0
2018-May-21 03:00N 35°28' E 139°42'0 0.0
2018-May-21 02:28N 35°28' E 139°42'0 0.0
2018-May-21 02:00N 35°28' E 139°42'  

Dump ship's entire track history